Time,TemperatureF,DewpointF,PressureIn,WindDirection,WindDirectionDegrees,WindSpeedMPH,WindSpeedGustMPH,Humidity,HourlyPrecipIn,Conditions,Clouds,dailyrainin,SoftwareType,DateUTC
2013-04-24 00:01:00,46.0,41.8,29.88,SSW,213,0.0,0.0,85,0.00,,---,0.00,VWS V14.01,2013-04-24 07:01:00,
2013-04-24 00:07:00,45.8,41.9,29.88,SSW,213,0.0,0.0,86,0.00,,---,0.00,VWS V14.01,2013-04-24 07:07:00,
2013-04-24 00:12:00,45.6,42.0,29.88,SSW,213,0.0,0.0,87,0.00,,---,0.00,VWS V14.01,2013-04-24 07:12:00,
2013-04-24 00:17:00,45.5,41.9,29.88,SSW,213,0.0,0.0,87,0.00,,---,0.00,VWS V14.01,2013-04-24 07:17:00,
2013-04-24 00:22:00,45.2,41.6,29.88,SSW,213,0.0,0.0,87,0.00,,---,0.00,VWS V14.01,2013-04-24 07:22:00,
2013-04-24 00:28:00,45.0,41.4,29.88,SSW,213,0.0,0.0,87,0.00,,---,0.00,VWS V14.01,2013-04-24 07:28:00,
2013-04-24 00:33:00,44.7,41.4,29.88,SSW,213,0.0,0.0,88,0.00,,---,0.00,VWS V14.01,2013-04-24 07:33:00,
2013-04-24 00:38:00,44.5,41.2,29.88,SSW,213,0.0,0.0,88,0.00,,---,0.00,VWS V14.01,2013-04-24 07:38:00,
2013-04-24 00:43:00,44.4,41.4,29.88,SSW,213,0.0,0.0,89,0.00,,---,0.00,VWS V14.01,2013-04-24 07:43:00,
2013-04-24 00:48:00,44.3,41.3,29.88,SSW,213,0.0,0.0,89,0.00,,---,0.00,VWS V14.01,2013-04-24 07:48:00,
2013-04-24 00:53:00,44.1,41.1,29.88,SSW,213,0.0,0.0,89,0.00,,---,0.00,VWS V14.01,2013-04-24 07:53:00,
2013-04-24 00:58:00,44.0,41.0,29.88,SSW,212,0.0,0.0,89,0.00,,---,0.00,VWS V14.01,2013-04-24 07:58:00,
2013-04-24 01:04:00,43.8,40.8,29.88,SSW,213,0.0,0.0,89,0.00,,---,0.00,VWS V14.01,2013-04-24 08:04:00,
2013-04-24 01:09:00,43.6,40.9,29.88,SSW,213,0.0,1.0,90,0.00,,---,0.00,VWS V14.01,2013-04-24 08:09:00,
2013-04-24 01:14:00,43.5,40.8,29.88,SSW,213,0.0,1.0,90,0.00,,---,0.00,VWS V14.01,2013-04-24 08:14:00,
2013-04-24 01:19:00,43.4,40.7,29.87,SSW,213,0.0,1.0,90,0.00,,---,0.00,VWS V14.01,2013-04-24 08:19:00,
2013-04-24 01:24:00,43.2,40.8,29.87,SSW,213,0.0,0.0,91,0.00,,---,0.00,VWS V14.01,2013-04-24 08:24:00,
2013-04-24 01:29:00,43.1,40.7,29.88,SSW,213,0.0,0.0,91,0.00,,---,0.00,VWS V14.01,2013-04-24 08:29:00,
2013-04-24 01:34:00,42.9,40.5,29.87,SSW,213,0.0,0.0,91,0.00,,---,0.00,VWS V14.01,2013-04-24 08:34:00,
2013-04-24 01:39:00,42.7,40.3,29.87,SSW,213,0.0,0.0,91,0.00,,---,0.00,VWS V14.01,2013-04-24 08:39:00,
2013-04-24 01:45:00,42.6,40.2,29.87,SSW,213,0.0,1.0,91,0.00,,---,0.00,VWS V14.01,2013-04-24 08:45:00,
2013-04-24 01:50:00,42.4,40.0,29.87,SSW,213,0.0,1.0,91,0.00,,---,0.00,VWS V14.01,2013-04-24 08:50:00,
2013-04-24 01:55:00,42.3,39.9,29.87,ESE,109,0.0,1.0,91,0.00,,---,0.00,VWS V14.01,2013-04-24 08:55:00,
2013-04-24 02:00:00,42.2,39.8,29.87,WSW,245,0.0,1.0,91,0.00,,---,0.00,VWS V14.01,2013-04-24 09:00:00,
2013-04-24 02:05:00,42.0,39.6,29.86,WSW,243,0.0,0.0,91,0.00,,---,0.00,VWS V14.01,2013-04-24 09:05:00,
2013-04-24 02:10:00,41.9,39.8,29.86,WSW,242,0.0,1.0,92,0.00,,---,0.00,VWS V14.01,2013-04-24 09:10:00,
2013-04-24 02:15:00,41.9,39.8,29.86,SW,223,0.0,1.0,92,0.00,,---,0.00,VWS V14.01,2013-04-24 09:15:00,
2013-04-24 02:21:00,41.8,39.7,29.85,SW,229,1.0,1.0,92,0.00,,---,0.00,VWS V14.01,2013-04-24 09:21:00,
2013-04-24 02:26:00,41.7,39.5,29.86,East,90,0.0,2.0,92,0.00,,---,0.00,VWS V14.01,2013-04-24 09:26:00,
2013-04-24 02:31:00,41.7,39.5,29.86,NE,36,0.0,2.0,92,0.00,,---,0.00,VWS V14.01,2013-04-24 09:31:00,
2013-04-24 02:36:00,41.6,39.5,29.85,SE,141,0.0,2.0,92,0.00,,---,0.00,VWS V14.01,2013-04-24 09:36:00,
2013-04-24 02:41:00,41.5,39.6,29.85,SW,234,0.0,1.0,93,0.00,,---,0.00,VWS V14.01,2013-04-24 09:41:00,
2013-04-24 02:46:00,41.5,39.6,29.85,East,84,0.0,1.0,93,0.00,,---,0.00,VWS V14.01,2013-04-24 09:46:00,
2013-04-24 02:51:00,41.4,39.5,29.84,NE,40,0.0,1.0,93,0.00,,---,0.00,VWS V14.01,2013-04-24 09:51:00,
2013-04-24 02:56:00,41.3,39.4,29.85,NE,40,0.0,1.0,93,0.00,,---,0.00,VWS V14.01,2013-04-24 09:56:00,
2013-04-24 03:01:00,41.3,39.4,29.84,WSW,248,1.0,3.0,93,0.00,,---,0.00,VWS V14.01,2013-04-24 10:01:00,
2013-04-24 03:06:00,41.3,39.4,29.84,SW,217,1.0,1.0,93,0.00,,---,0.00,VWS V14.01,2013-04-24 10:06:00,
2013-04-24 03:11:00,41.3,39.4,29.84,SW,229,0.0,2.0,93,0.00,,---,0.00,VWS V14.01,2013-04-24 10:11:00,
2013-04-24 03:16:00,41.2,39.3,29.85,NE,53,2.0,2.0,93,0.00,,---,0.00,VWS V14.01,2013-04-24 10:16:00,
2013-04-24 03:21:00,41.1,39.2,29.85,East,88,1.0,4.0,93,0.00,,---,0.00,VWS V14.01,2013-04-24 10:21:00,
2013-04-24 03:26:00,41.2,39.6,29.84,SW,229,0.0,3.0,94,0.00,,---,0.00,VWS V14.01,2013-04-24 10:26:00,
2013-04-24 03:31:00,41.3,39.7,29.85,SSE,161,1.0,4.0,94,0.00,,---,0.00,VWS V14.01,2013-04-24 10:31:00,
2013-04-24 03:36:00,41.5,39.9,29.84,NNW,345,1.0,4.0,94,0.00,,---,0.00,VWS V14.01,2013-04-24 10:36:00,
2013-04-24 03:41:00,41.7,40.4,29.83,WSW,238,1.0,3.0,95,0.00,,---,0.00,VWS V14.01,2013-04-24 10:41:00,
2013-04-24 03:46:00,41.8,40.2,29.85,NE,53,2.0,3.0,94,0.00,,---,0.00,VWS V14.01,2013-04-24 10:46:00,
2013-04-24 03:51:00,41.8,40.2,29.84,NNW,345,0.0,3.0,94,0.00,,---,0.00,VWS V14.01,2013-04-24 10:51:00,
2013-04-24 03:56:00,41.8,40.2,29.84,NNW,340,0.0,0.0,94,0.00,,---,0.00,VWS V14.01,2013-04-24 10:56:00,
2013-04-24 04:01:00,41.9,40.6,29.84,ENE,59,0.0,2.0,95,0.00,,---,0.00,VWS V14.01,2013-04-24 11:01:00,
2013-04-24 04:06:00,41.7,40.1,29.84,NE,54,3.0,3.0,94,0.00,,---,0.00,VWS V14.01,2013-04-24 11:06:00,
2013-04-24 04:11:00,41.8,40.5,29.83,WSW,242,3.0,4.0,95,0.00,,---,0.00,VWS V14.01,2013-04-24 11:11:00,
2013-04-24 04:16:00,41.8,40.5,29.83,ENE,62,2.0,3.0,95,0.00,,---,0.00,VWS V14.01,2013-04-24 11:16:00,
2013-04-24 04:21:00,41.9,40.6,29.83,West,265,1.0,6.0,95,0.00,,---,0.00,VWS V14.01,2013-04-24 11:21:00,
2013-04-24 04:26:00,42.0,40.7,29.83,ENE,76,2.0,3.0,95,0.00,,---,0.00,VWS V14.01,2013-04-24 11:26:00,
2013-04-24 04:31:00,42.0,40.7,29.82,NE,40,3.0,5.0,95,0.00,,---,0.00,VWS V14.01,2013-04-24 11:31:00,
2013-04-24 04:36:00,42.1,40.8,29.82,NNW,328,1.0,6.0,95,0.00,,---,0.00,VWS V14.01,2013-04-24 11:36:00,
2013-04-24 04:41:00,42.2,40.9,29.82,WSW,252,0.0,4.0,95,0.00,,---,0.00,VWS V14.01,2013-04-24 11:41:00,
2013-04-24 04:46:00,42.2,40.9,29.81,WSW,242,1.0,2.0,95,0.00,,---,0.00,VWS V14.01,2013-04-24 11:46:00,
2013-04-24 04:51:00,42.2,40.9,29.82,NE,36,2.0,5.0,95,0.00,,---,0.00,VWS V14.01,2013-04-24 11:51:00,
2013-04-24 04:55:00,42.4,41.1,29.81,WNW,292,1.0,3.0,95,0.00,,---,0.00,VWS V14.01,2013-04-24 11:55:00,
2013-04-24 05:00:00,42.5,40.9,29.82,East,90,1.0,4.0,94,0.00,,---,0.00,VWS V14.01,2013-04-24 12:00:00,
2013-04-24 05:05:00,42.4,40.8,29.81,West,270,1.0,4.0,94,0.00,,---,0.00,VWS V14.01,2013-04-24 12:05:00,
2013-04-24 05:10:00,42.5,41.2,29.82,WSW,248,1.0,4.0,95,0.00,,---,0.00,VWS V14.01,2013-04-24 12:10:00,
2013-04-24 05:15:00,42.7,41.1,29.82,SW,225,2.0,8.0,94,0.00,,---,0.00,VWS V14.01,2013-04-24 12:15:00,
2013-04-24 05:20:00,43.0,41.1,29.81,SW,225,3.0,7.0,93,0.00,,---,0.00,VWS V14.01,2013-04-24 12:20:00,
2013-04-24 05:25:00,43.3,41.1,29.82,SW,225,2.0,5.0,92,0.00,,---,0.00,VWS V14.01,2013-04-24 12:25:00,
2013-04-24 05:30:00,43.3,41.1,29.82,NE,45,1.0,4.0,92,0.00,,---,0.00,VWS V14.01,2013-04-24 12:30:00,
2013-04-24 05:35:00,43.4,41.2,29.82,West,270,2.0,6.0,92,0.00,,---,0.00,VWS V14.01,2013-04-24 12:35:00,
2013-04-24 05:40:00,43.2,41.0,29.82,NE,45,2.0,6.0,92,0.00,,---,0.00,VWS V14.01,2013-04-24 12:40:00,
2013-04-24 05:45:00,43.3,41.1,29.82,SW,225,4.0,9.0,92,0.00,,---,0.00,VWS V14.01,2013-04-24 12:45:00,
2013-04-24 05:50:00,43.3,41.1,29.82,East,90,3.0,6.0,92,0.00,,---,0.00,VWS V14.01,2013-04-24 12:50:00,
2013-04-24 05:55:00,43.0,41.1,29.81,WSW,248,3.0,10.0,93,0.00,,---,0.00,VWS V14.01,2013-04-24 12:55:00,
2013-04-24 06:00:00,43.1,41.2,29.82,SW,225,2.0,6.0,93,0.00,,---,0.00,VWS V14.01,2013-04-24 13:00:00,
2013-04-24 06:05:00,43.0,41.1,29.82,WNW,292,1.0,4.0,93,0.00,,---,0.00,VWS V14.01,2013-04-24 13:05:00,
2013-04-24 06:10:00,43.0,41.1,29.81,SW,225,3.0,7.0,93,0.00,,---,0.00,VWS V14.01,2013-04-24 13:10:00,
2013-04-24 06:15:00,43.0,41.1,29.83,ENE,68,1.0,5.0,93,0.00,,---,0.00,VWS V14.01,2013-04-24 13:15:00,
2013-04-24 06:20:00,42.9,41.0,29.82,SW,225,3.0,7.0,93,0.00,,---,0.00,VWS V14.01,2013-04-24 13:20:00,
2013-04-24 06:25:00,42.8,40.9,29.83,NE,45,2.0,5.0,93,0.00,,---,0.00,VWS V14.01,2013-04-24 13:25:00,
2013-04-24 06:30:00,42.8,40.9,29.82,NE,45,3.0,7.0,93,0.00,,---,0.00,VWS V14.01,2013-04-24 13:30:00,
2013-04-24 06:35:00,42.8,40.9,29.82,ENE,68,1.0,5.0,93,0.00,,---,0.00,VWS V14.01,2013-04-24 13:35:00,
2013-04-24 06:40:00,42.8,41.2,29.82,WSW,248,3.0,6.0,94,0.00,,---,0.00,VWS V14.01,2013-04-24 13:40:00,
2013-04-24 06:45:00,42.8,41.2,29.82,WSW,248,2.0,5.0,94,0.00,,---,0.00,VWS V14.01,2013-04-24 13:45:00,
2013-04-24 06:50:00,43.1,41.2,29.83,ENE,68,2.0,6.0,93,0.00,,---,0.00,VWS V14.01,2013-04-24 13:50:00,
2013-04-24 06:55:00,43.2,41.3,29.82,SW,225,2.0,6.0,93,0.00,,---,0.00,VWS V14.01,2013-04-24 13:55:00,
2013-04-24 07:00:00,43.4,41.5,29.82,WSW,248,2.0,6.0,93,0.00,,---,0.00,VWS V14.01,2013-04-24 14:00:00,
2013-04-24 07:05:00,43.8,41.6,29.83,East,90,1.0,3.0,92,0.00,,---,0.00,VWS V14.01,2013-04-24 14:05:00,
2013-04-24 07:10:00,44.6,42.1,29.83,ENE,68,1.0,7.0,91,0.00,,---,0.00,VWS V14.01,2013-04-24 14:10:00,
2013-04-24 07:15:00,45.8,42.8,29.82,SW,225,3.0,10.0,89,0.00,,---,0.00,VWS V14.01,2013-04-24 14:15:00,
2013-04-24 07:20:00,46.2,43.1,29.83,ENE,68,2.0,5.0,89,0.00,,---,0.00,VWS V14.01,2013-04-24 14:20:00,
2013-04-24 07:25:00,46.8,43.1,29.83,SW,225,2.0,6.0,87,0.00,,---,0.00,VWS V14.01,2013-04-24 14:25:00,
2013-04-24 07:30:00,47.4,43.7,29.83,East,90,1.0,5.0,87,0.00,,---,0.00,VWS V14.01,2013-04-24 14:30:00,
2013-04-24 07:35:00,48.1,44.1,29.83,SW,225,1.0,4.0,86,0.00,,---,0.00,VWS V14.01,2013-04-24 14:35:00,
2013-04-24 07:40:00,48.7,44.4,29.83,ENE,68,3.0,10.0,85,0.00,,---,0.00,VWS V14.01,2013-04-24 14:40:00,
2013-04-24 07:45:00,49.3,44.4,29.84,SW,225,3.0,6.0,83,0.00,,---,0.00,VWS V14.01,2013-04-24 14:45:00,
2013-04-24 07:50:00,49.3,43.7,29.84,SW,225,2.0,12.0,81,0.00,,---,0.00,VWS V14.01,2013-04-24 14:50:00,
2013-04-24 07:55:00,49.5,44.2,29.84,SW,225,3.0,13.0,82,0.00,,---,0.00,VWS V14.01,2013-04-24 14:55:00,
2013-04-24 08:00:00,50.0,44.7,29.84,East,90,2.0,5.0,82,0.00,,---,0.00,VWS V14.01,2013-04-24 15:00:00,
2013-04-24 08:05:00,50.1,44.5,29.84,WSW,248,2.0,6.0,81,0.00,,---,0.00,VWS V14.01,2013-04-24 15:05:00,
2013-04-24 08:10:00,50.5,44.2,29.84,SSW,202,3.0,13.0,79,0.00,,---,0.00,VWS V14.01,2013-04-24 15:10:00,
2013-04-24 08:15:00,50.8,44.5,29.85,SW,225,3.0,9.0,79,0.00,,---,0.00,VWS V14.01,2013-04-24 15:15:00,
2013-04-24 08:20:00,50.6,44.0,29.84,SW,225,6.0,15.0,78,0.00,,---,0.00,VWS V14.01,2013-04-24 15:20:00,
2013-04-24 08:25:00,50.5,44.6,29.85,SW,225,5.0,18.0,80,0.00,,---,0.00,VWS V14.01,2013-04-24 15:25:00,
2013-04-24 08:30:00,49.6,44.0,29.84,SW,225,7.0,15.0,81,0.00,,---,0.00,VWS V14.01,2013-04-24 15:30:00,
2013-04-24 08:35:00,49.4,44.1,29.85,SW,225,6.0,13.0,82,0.00,,---,0.00,VWS V14.01,2013-04-24 15:35:00,
2013-04-24 08:40:00,49.3,44.0,29.85,SW,225,6.0,15.0,82,0.00,,---,0.00,VWS V14.01,2013-04-24 15:40:00,
2013-04-24 08:45:00,49.6,44.7,29.85,SW,225,5.0,14.0,83,0.00,,---,0.00,VWS V14.01,2013-04-24 15:45:00,
2013-04-24 08:50:00,50.3,44.7,29.85,SW,225,3.0,10.0,81,0.00,,---,0.00,VWS V14.01,2013-04-24 15:50:00,
2013-04-24 08:55:00,50.0,45.0,29.85,SSW,202,6.0,15.0,83,0.00,,---,0.00,VWS V14.01,2013-04-24 15:55:00,
2013-04-24 09:00:00,50.0,44.4,29.85,SSW,202,8.0,15.0,81,0.00,,---,0.00,VWS V14.01,2013-04-24 16:00:00,
2013-04-24 09:05:00,50.7,45.1,29.85,SW,225,6.0,14.0,81,0.00,,---,0.00,VWS V14.01,2013-04-24 16:05:00,
2013-04-24 09:10:00,50.9,45.0,29.85,SW,225,9.0,17.0,80,0.00,,---,0.00,VWS V14.01,2013-04-24 16:10:00,
2013-04-24 09:15:00,51.4,45.5,29.85,SW,225,8.0,17.0,80,0.00,,---,0.00,VWS V14.01,2013-04-24 16:15:00,
2013-04-24 09:20:00,51.9,45.6,29.86,SW,225,6.0,19.0,79,0.00,,---,0.00,VWS V14.01,2013-04-24 16:20:00,
2013-04-24 09:25:00,53.0,46.3,29.85,SW,225,8.0,17.0,78,0.00,,---,0.00,VWS V14.01,2013-04-24 16:25:00,
2013-04-24 09:30:00,53.4,46.0,29.85,SW,225,6.0,15.0,76,0.00,,---,0.00,VWS V14.01,2013-04-24 16:30:00,
2013-04-24 09:35:00,53.8,46.8,29.85,SSW,202,8.0,19.0,77,0.00,,---,0.00,VWS V14.01,2013-04-24 16:35:00,
2013-04-24 09:40:00,54.2,46.8,29.86,SSW,202,5.0,12.0,76,0.00,,---,0.00,VWS V14.01,2013-04-24 16:40:00,
2013-04-24 09:45:00,54.1,47.1,29.86,SW,225,9.0,17.0,77,0.00,,---,0.00,VWS V14.01,2013-04-24 16:45:00,
2013-04-24 09:50:00,54.1,47.4,29.86,SSW,202,10.0,19.0,78,0.00,,---,0.00,VWS V14.01,2013-04-24 16:50:00,
2013-04-24 09:55:00,54.6,47.2,29.86,SSW,202,7.0,15.0,76,0.00,,---,0.00,VWS V14.01,2013-04-24 16:55:00,
2013-04-24 10:00:00,54.8,47.4,29.86,SSW,202,9.0,17.0,76,0.00,,---,0.00,VWS V14.01,2013-04-24 17:00:00,
2013-04-24 10:05:00,55.0,47.6,29.86,SW,225,9.0,16.0,76,0.00,,---,0.00,VWS V14.01,2013-04-24 17:05:00,
2013-04-24 10:10:00,55.4,48.3,29.87,SSW,202,7.0,14.0,77,0.00,,---,0.00,VWS V14.01,2013-04-24 17:10:00,
2013-04-24 10:15:00,55.6,48.2,29.86,SW,225,9.0,21.0,76,0.00,,---,0.00,VWS V14.01,2013-04-24 17:15:00,
2013-04-24 10:20:00,56.1,48.3,29.87,SW,225,6.0,16.0,75,0.00,,---,0.00,VWS V14.01,2013-04-24 17:20:00,
2013-04-24 10:25:00,56.2,48.4,29.86,SSW,202,8.0,16.0,75,0.00,,---,0.00,VWS V14.01,2013-04-24 17:25:00,
2013-04-24 10:30:00,56.7,48.5,29.87,SW,225,6.0,14.0,74,0.00,,---,0.00,VWS V14.01,2013-04-24 17:30:00,
2013-04-24 10:35:00,57.0,48.1,29.87,SSW,202,7.0,15.0,72,0.00,,---,0.00,VWS V14.01,2013-04-24 17:35:00,
2013-04-24 10:40:00,57.1,48.2,29.87,SW,225,9.0,17.0,72,0.00,,---,0.00,VWS V14.01,2013-04-24 17:40:00,
2013-04-24 10:45:00,57.4,48.5,29.87,SSW,202,7.0,17.0,72,0.00,,---,0.00,VWS V14.01,2013-04-24 17:45:00,
2013-04-24 10:50:00,57.5,48.6,29.87,SSW,202,9.0,18.0,72,0.00,,---,0.00,VWS V14.01,2013-04-24 17:50:00,
2013-04-24 10:55:00,58.0,48.7,29.87,SSW,202,7.0,15.0,71,0.00,,---,0.00,VWS V14.01,2013-04-24 17:55:00,
2013-04-24 11:00:00,58.4,48.3,29.87,SSW,202,9.0,17.0,69,0.00,,---,0.00,VWS V14.01,2013-04-24 18:00:00,
2013-04-24 11:05:00,58.7,48.2,29.87,SW,225,8.0,17.0,68,0.00,,---,0.00,VWS V14.01,2013-04-24 18:05:00,
2013-04-24 11:10:00,59.1,48.2,29.88,SSW,202,6.0,14.0,67,0.00,,---,0.00,VWS V14.01,2013-04-24 18:10:00,
2013-04-24 11:15:00,59.3,48.4,29.87,SW,225,7.0,16.0,67,0.00,,---,0.00,VWS V14.01,2013-04-24 18:15:00,
2013-04-24 11:20:00,59.6,48.6,29.87,SW,225,10.0,16.0,67,0.00,,---,0.00,VWS V14.01,2013-04-24 18:20:00,
2013-04-24 11:25:00,59.8,48.8,29.87,SSW,202,8.0,16.0,67,0.00,,---,0.00,VWS V14.01,2013-04-24 18:25:00,
2013-04-24 11:30:00,60.2,48.8,29.87,SSW,202,8.0,17.0,66,0.00,,---,0.00,VWS V14.01,2013-04-24 18:30:00,
2013-04-24 11:35:00,60.6,48.8,29.87,SW,225,7.0,17.0,65,0.00,,---,0.00,VWS V14.01,2013-04-24 18:35:00,
2013-04-24 11:40:00,60.9,49.1,29.87,SW,225,9.0,16.0,65,0.00,,---,0.00,VWS V14.01,2013-04-24 18:40:00,
2013-04-24 11:45:00,61.5,49.2,29.87,SSW,202,8.0,16.0,64,0.00,,---,0.00,VWS V14.01,2013-04-24 18:45:00,
2013-04-24 11:50:00,62.0,49.7,29.87,SW,225,7.0,13.0,64,0.00,,---,0.00,VWS V14.01,2013-04-24 18:50:00,
2013-04-24 11:55:00,62.3,49.6,29.87,SW,225,8.0,18.0,63,0.00,,---,0.00,VWS V14.01,2013-04-24 18:55:00,
2013-04-24 12:00:00,62.4,49.2,29.87,SW,225,8.0,17.0,62,0.00,,---,0.00,VWS V14.01,2013-04-24 19:00:00,
2013-04-24 12:05:00,62.6,49.0,29.87,SW,225,8.0,16.0,61,0.00,,---,0.00,VWS V14.01,2013-04-24 19:05:00,
2013-04-24 12:10:00,62.9,49.3,29.87,SW,225,8.0,14.0,61,0.00,,---,0.00,VWS V14.01,2013-04-24 19:10:00,
2013-04-24 12:15:00,63.2,50.0,29.87,SW,225,7.0,15.0,62,0.00,,---,0.00,VWS V14.01,2013-04-24 19:15:00,
2013-04-24 12:20:00,63.4,49.7,29.87,SW,225,8.0,16.0,61,0.00,,---,0.00,VWS V14.01,2013-04-24 19:20:00,
2013-04-24 12:25:00,63.4,49.7,29.87,SW,225,7.0,14.0,61,0.00,,---,0.00,VWS V14.01,2013-04-24 19:25:00,
2013-04-24 12:30:00,63.9,50.2,29.87,SW,225,5.0,14.0,61,0.00,,---,0.00,VWS V14.01,2013-04-24 19:30:00,
2013-04-24 12:35:00,64.4,50.7,29.87,West,270,4.0,15.0,61,0.00,,---,0.00,VWS V14.01,2013-04-24 19:35:00,
2013-04-24 12:40:00,64.2,50.0,29.87,SW,225,7.0,14.0,60,0.00,,---,0.00,VWS V14.01,2013-04-24 19:40:00,
2013-04-24 12:45:00,64.9,51.6,29.87,SW,225,3.0,9.0,62,0.00,,---,0.00,VWS V14.01,2013-04-24 19:45:00,
2013-04-24 12:50:00,65.2,50.5,29.87,SW,225,4.0,13.0,59,0.00,,---,0.00,VWS V14.01,2013-04-24 19:50:00,
2013-04-24 12:55:00,65.7,51.5,29.87,SW,225,3.0,11.0,60,0.00,,---,0.00,VWS V14.01,2013-04-24 19:55:00,
2013-04-24 13:00:00,66.2,51.5,29.87,WNW,292,3.0,7.0,59,0.00,,---,0.00,VWS V14.01,2013-04-24 20:00:00,
2013-04-24 13:05:00,65.8,50.6,29.87,SW,225,3.0,7.0,58,0.00,,---,0.00,VWS V14.01,2013-04-24 20:05:00,
2013-04-24 13:10:00,65.5,49.9,29.87,SW,225,4.0,10.0,57,0.00,,---,0.00,VWS V14.01,2013-04-24 20:10:00,
2013-04-24 13:15:00,65.0,49.4,29.87,WNW,292,5.0,12.0,57,0.00,,---,0.00,VWS V14.01,2013-04-24 20:15:00,
2013-04-24 13:20:00,64.6,49.5,29.87,WSW,248,5.0,11.0,58,0.00,,---,0.00,VWS V14.01,2013-04-24 20:20:00,
2013-04-24 13:25:00,65.0,50.3,29.87,SW,225,2.0,9.0,59,0.00,,---,0.00,VWS V14.01,2013-04-24 20:25:00,
2013-04-24 13:30:00,65.3,50.2,29.87,WSW,248,2.0,6.0,58,0.00,,---,0.00,VWS V14.01,2013-04-24 20:30:00,
2013-04-24 13:35:00,65.5,49.9,29.87,WSW,248,3.0,11.0,57,0.00,,---,0.00,VWS V14.01,2013-04-24 20:35:00,
2013-04-24 13:40:00,65.7,50.5,29.87,SW,225,2.0,11.0,58,0.00,,---,0.00,VWS V14.01,2013-04-24 20:40:00,
2013-04-24 13:45:00,65.7,50.1,29.87,West,270,3.0,12.0,57,0.00,,---,0.00,VWS V14.01,2013-04-24 20:45:00,
2013-04-24 13:50:00,65.3,50.6,29.87,NW,315,4.0,10.0,59,0.00,,---,0.00,VWS V14.01,2013-04-24 20:50:00,
2013-04-24 13:55:00,65.2,51.4,29.87,SW,225,4.0,10.0,61,0.00,,---,0.00,VWS V14.01,2013-04-24 20:55:00,
2013-04-24 14:00:00,65.1,50.4,29.87,WSW,248,3.0,10.0,59,0.00,,---,0.00,VWS V14.01,2013-04-24 21:00:00,
2013-04-24 14:05:00,64.6,51.3,29.87,WNW,292,4.0,15.0,62,0.00,,---,0.00,VWS V14.01,2013-04-24 21:05:00,
2013-04-24 14:10:00,64.1,50.0,29.87,SW,225,5.0,12.0,60,0.00,,---,0.00,VWS V14.01,2013-04-24 21:10:00,
2013-04-24 14:15:00,64.3,50.6,29.87,West,270,3.0,7.0,61,0.00,,---,0.00,VWS V14.01,2013-04-24 21:15:00,
2013-04-24 14:20:00,64.4,50.7,29.87,West,270,3.0,7.0,61,0.00,,---,0.00,VWS V14.01,2013-04-24 21:20:00,
2013-04-24 14:25:00,64.6,50.4,29.87,SW,225,3.0,10.0,60,0.00,,---,0.00,VWS V14.01,2013-04-24 21:25:00,
2013-04-24 14:30:00,64.8,50.2,29.87,WNW,292,2.0,4.0,59,0.00,,---,0.00,VWS V14.01,2013-04-24 21:30:00,
2013-04-24 14:35:00,64.3,49.7,29.87,SW,225,4.0,11.0,59,0.00,,---,0.00,VWS V14.01,2013-04-24 21:35:00,
2013-04-24 14:40:00,63.8,49.2,29.87,SW,225,5.0,13.0,59,0.00,,---,0.00,VWS V14.01,2013-04-24 21:40:00,
2013-04-24 14:45:00,64.1,50.4,29.87,East,90,2.0,7.0,61,0.00,,---,0.00,VWS V14.01,2013-04-24 21:45:00,
2013-04-24 14:50:00,63.8,50.1,29.87,SW,225,4.0,12.0,61,0.00,,---,0.00,VWS V14.01,2013-04-24 21:50:00,
2013-04-24 14:55:00,63.8,50.1,29.87,WSW,248,3.0,9.0,61,0.00,,---,0.00,VWS V14.01,2013-04-24 21:55:00,
2013-04-24 15:00:00,63.9,49.8,29.87,SW,225,2.0,7.0,60,0.00,,---,0.00,VWS V14.01,2013-04-24 22:00:00,
2013-04-24 15:05:00,64.5,50.3,29.87,SW,225,2.0,7.0,60,0.00,,---,0.00,VWS V14.01,2013-04-24 22:05:00,
2013-04-24 15:10:00,63.9,49.8,29.87,NW,315,3.0,9.0,60,0.00,,---,0.00,VWS V14.01,2013-04-24 22:10:00,
2013-04-24 15:15:00,64.1,50.0,29.87,WSW,248,2.0,7.0,60,0.00,,---,0.00,VWS V14.01,2013-04-24 22:15:00,
2013-04-24 15:20:00,64.2,49.6,29.87,SW,225,3.0,12.0,59,0.00,,---,0.00,VWS V14.01,2013-04-24 22:20:00,
2013-04-24 15:25:00,63.7,50.5,29.87,NW,315,3.0,10.0,62,0.00,,---,0.00,VWS V14.01,2013-04-24 22:25:00,
2013-04-24 15:30:00,63.6,49.5,29.87,WNW,292,3.0,7.0,60,0.00,,---,0.00,VWS V14.01,2013-04-24 22:30:00,
2013-04-24 15:35:00,63.9,50.2,29.87,NE,45,2.0,5.0,61,0.00,,---,0.00,VWS V14.01,2013-04-24 22:35:00,
2013-04-24 15:40:00,64.0,49.4,29.87,SW,225,2.0,6.0,59,0.00,,---,0.00,VWS V14.01,2013-04-24 22:40:00,
2013-04-24 15:45:00,63.2,49.5,29.87,WNW,292,4.0,10.0,61,0.00,,---,0.00,VWS V14.01,2013-04-24 22:45:00,
2013-04-24 15:50:00,63.0,49.4,29.87,SW,225,3.0,7.0,61,0.00,,---,0.00,VWS V14.01,2013-04-24 22:50:00,
2013-04-24 15:55:00,62.7,49.5,29.86,NW,315,4.0,11.0,62,0.00,,---,0.00,VWS V14.01,2013-04-24 22:55:00,
2013-04-24 16:00:00,62.6,49.8,29.86,West,270,3.0,9.0,63,0.00,,---,0.00,VWS V14.01,2013-04-24 23:00:00,
2013-04-24 16:05:00,63.0,48.9,29.87,NE,45,3.0,7.0,60,0.00,,---,0.00,VWS V14.01,2013-04-24 23:05:00,
2013-04-24 16:10:00,62.7,49.1,29.86,WNW,292,3.0,9.0,61,0.00,,---,0.00,VWS V14.01,2013-04-24 23:10:00,
2013-04-24 16:15:00,62.8,49.2,29.86,NW,315,2.0,6.0,61,0.00,,---,0.00,VWS V14.01,2013-04-24 23:15:00,
2013-04-24 16:20:00,62.1,48.9,29.87,WNW,292,4.0,11.0,62,0.00,,---,0.00,VWS V14.01,2013-04-24 23:20:00,
2013-04-24 16:25:00,61.8,49.5,29.86,WNW,292,3.0,10.0,64,0.00,,---,0.00,VWS V14.01,2013-04-24 23:25:00,
2013-04-24 16:30:00,61.9,48.3,29.87,West,270,3.0,10.0,61,0.00,,---,0.00,VWS V14.01,2013-04-24 23:30:00,
2013-04-24 16:35:00,61.8,49.1,29.86,WNW,292,3.0,10.0,63,0.00,,---,0.00,VWS V14.01,2013-04-24 23:35:00,
2013-04-24 16:40:00,61.3,48.2,29.87,WNW,292,5.0,12.0,62,0.00,,---,0.00,VWS V14.01,2013-04-24 23:40:00,
2013-04-24 16:45:00,61.4,48.3,29.87,West,270,2.0,4.0,62,0.00,,---,0.00,VWS V14.01,2013-04-24 23:45:00,
2013-04-24 16:50:00,61.6,48.5,29.86,WSW,248,2.0,9.0,62,0.00,,---,0.00,VWS V14.01,2013-04-24 23:50:00,
2013-04-24 16:55:00,61.4,48.7,29.86,WSW,248,2.0,6.0,63,0.00,,---,0.00,VWS V14.01,2013-04-24 23:55:00,
2013-04-24 17:00:00,61.5,47.9,29.86,SW,225,3.0,10.0,61,0.00,,---,0.00,VWS V14.01,2013-04-25 00:00:00,
2013-04-24 17:05:00,61.3,47.8,29.86,WNW,292,2.0,7.0,61,0.00,,---,0.00,VWS V14.01,2013-04-25 00:05:00,
2013-04-24 17:10:00,60.9,48.2,29.87,NW,315,2.0,6.0,63,0.00,,---,0.00,VWS V14.01,2013-04-25 00:10:00,
2013-04-24 17:15:00,60.6,47.5,29.87,SW,225,4.0,10.0,62,0.00,,---,0.00,VWS V14.01,2013-04-25 00:15:00,
2013-04-24 17:20:00,60.6,48.0,29.87,West,270,2.0,7.0,63,0.00,,---,0.00,VWS V14.01,2013-04-25 00:20:00,
2013-04-24 17:25:00,60.3,47.7,29.87,WNW,292,3.0,7.0,63,0.00,,---,0.00,VWS V14.01,2013-04-25 00:25:00,
2013-04-24 17:30:00,59.9,47.3,29.87,WNW,292,3.0,6.0,63,0.00,,---,0.00,VWS V14.01,2013-04-25 00:30:00,
2013-04-24 17:35:00,59.8,47.2,29.87,NW,315,2.0,5.0,63,0.00,,---,0.00,VWS V14.01,2013-04-25 00:35:00,
2013-04-24 17:40:00,59.5,46.9,29.87,WNW,292,3.0,7.0,63,0.00,,---,0.00,VWS V14.01,2013-04-25 00:40:00,
2013-04-24 17:45:00,58.9,46.8,29.87,WNW,292,3.0,9.0,64,0.00,,---,0.00,VWS V14.01,2013-04-25 00:45:00,
2013-04-24 17:50:00,58.9,47.2,29.87,NW,315,2.0,5.0,65,0.00,,---,0.00,VWS V14.01,2013-04-25 00:50:00,
2013-04-24 17:55:00,58.5,46.8,29.88,West,270,2.0,8.0,65,0.00,,---,0.00,VWS V14.01,2013-04-25 00:55:00,
2013-04-24 18:00:00,58.4,46.7,29.88,SW,225,2.0,6.0,65,0.00,,---,0.00,VWS V14.01,2013-04-25 01:00:00,
2013-04-24 18:05:00,57.9,46.6,29.88,WNW,292,2.0,6.0,66,0.00,,---,0.00,VWS V14.01,2013-04-25 01:05:00,
2013-04-24 18:10:00,57.8,46.9,29.88,SW,225,2.0,7.0,67,0.00,,---,0.00,VWS V14.01,2013-04-25 01:10:00,
2013-04-24 18:15:00,57.1,46.7,29.88,WNW,292,2.0,6.0,68,0.00,,---,0.00,VWS V14.01,2013-04-25 01:15:00,
2013-04-24 18:20:00,56.6,46.9,29.88,West,270,1.0,4.0,70,0.00,,---,0.00,VWS V14.01,2013-04-25 01:20:00,
2013-04-24 18:25:00,56.1,46.5,29.88,NNW,338,2.0,5.0,70,0.00,,---,0.00,VWS V14.01,2013-04-25 01:25:00,
2013-04-24 18:30:00,55.4,46.5,29.89,NW,315,2.0,5.0,72,0.00,,---,0.00,VWS V14.01,2013-04-25 01:30:00,
2013-04-24 18:35:00,54.8,46.3,29.89,SW,225,3.0,9.0,73,0.00,,---,0.00,VWS V14.01,2013-04-25 01:35:00,
2013-04-24 18:40:00,54.6,46.5,29.89,SSE,158,1.0,5.0,74,0.00,,---,0.00,VWS V14.01,2013-04-25 01:40:00,
2013-04-24 18:45:00,54.3,46.2,29.89,West,270,1.0,8.0,74,0.00,,---,0.00,VWS V14.01,2013-04-25 01:45:00,
2013-04-24 18:50:00,53.9,46.2,29.90,WSW,248,2.0,11.0,75,0.00,,---,0.00,VWS V14.01,2013-04-25 01:50:00,
2013-04-24 18:55:00,53.6,46.2,29.90,WSW,248,2.0,7.0,76,0.00,,---,0.00,VWS V14.01,2013-04-25 01:55:00,
2013-04-24 19:00:00,53.2,46.2,29.90,WNW,292,1.0,7.0,77,0.00,,---,0.00,VWS V14.01,2013-04-25 02:00:00,
2013-04-24 19:05:00,53.0,46.0,29.90,SW,225,2.0,6.0,77,0.00,,---,0.00,VWS V14.01,2013-04-25 02:05:00,
2013-04-24 19:10:00,52.7,46.0,29.90,WSW,248,1.0,4.0,78,0.00,,---,0.00,VWS V14.01,2013-04-25 02:10:00,
2013-04-24 19:15:00,52.2,45.6,29.90,NW,315,1.0,4.0,78,0.00,,---,0.00,VWS V14.01,2013-04-25 02:15:00,
2013-04-24 19:20:00,51.8,45.5,29.90,WNW,292,2.0,5.0,79,0.00,,---,0.00,VWS V14.01,2013-04-25 02:20:00,
2013-04-24 19:25:00,51.4,45.1,29.91,NW,315,2.0,5.0,79,0.00,,---,0.00,VWS V14.01,2013-04-25 02:25:00,
2013-04-24 19:30:00,51.1,45.2,29.91,West,270,1.0,4.0,80,0.00,,---,0.00,VWS V14.01,2013-04-25 02:30:00,
2013-04-24 19:35:00,50.8,45.2,29.91,NW,315,3.0,7.0,81,0.00,,---,0.00,VWS V14.01,2013-04-25 02:35:00,
2013-04-24 19:40:00,50.5,44.9,29.91,NW,315,3.0,7.0,81,0.00,,---,0.00,VWS V14.01,2013-04-25 02:40:00,
2013-04-24 19:45:00,50.2,44.9,29.91,West,270,1.0,6.0,82,0.00,,---,0.00,VWS V14.01,2013-04-25 02:45:00,
2013-04-24 19:50:00,49.9,45.0,29.91,NW,315,2.0,4.0,83,0.00,,---,0.00,VWS V14.01,2013-04-25 02:50:00,
2013-04-24 19:55:00,49.7,44.8,29.92,West,270,1.0,4.0,83,0.00,,---,0.00,VWS V14.01,2013-04-25 02:55:00,
2013-04-24 20:00:00,49.3,44.7,29.92,West,270,2.0,6.0,84,0.00,,---,0.00,VWS V14.01,2013-04-25 03:00:00,
2013-04-24 20:05:00,49.0,44.4,29.92,West,270,1.0,3.0,84,0.00,,---,0.00,VWS V14.01,2013-04-25 03:05:00,
2013-04-24 20:10:00,48.7,44.4,29.92,WSW,248,1.0,4.0,85,0.00,,---,0.00,VWS V14.01,2013-04-25 03:10:00,
2013-04-24 20:15:00,48.5,44.2,29.92,WSW,248,1.0,5.0,85,0.00,,---,0.00,VWS V14.01,2013-04-25 03:15:00,
2013-04-24 20:20:00,48.2,44.2,29.92,NW,315,1.0,3.0,86,0.00,,---,0.00,VWS V14.01,2013-04-25 03:20:00,
2013-04-24 20:25:00,48.1,44.1,29.93,West,270,1.0,4.0,86,0.00,,---,0.00,VWS V14.01,2013-04-25 03:25:00,
2013-04-24 20:30:00,47.9,44.2,29.93,WSW,248,1.0,4.0,87,0.00,,---,0.00,VWS V14.01,2013-04-25 03:30:00,
2013-04-24 20:35:00,47.8,44.1,29.93,WSW,248,1.0,3.0,87,0.00,,---,0.00,VWS V14.01,2013-04-25 03:35:00,
2013-04-24 20:40:00,47.7,44.0,29.93,NW,315,1.0,3.0,87,0.00,,---,0.00,VWS V14.01,2013-04-25 03:40:00,
2013-04-24 20:45:00,47.5,44.1,29.94,NW,315,1.0,4.0,88,0.00,,---,0.00,VWS V14.01,2013-04-25 03:45:00,
2013-04-24 20:50:00,47.4,44.0,29.94,NW,315,0.0,3.0,88,0.00,,---,0.00,VWS V14.01,2013-04-25 03:50:00,
2013-04-24 20:55:00,47.3,43.9,29.94,NW,315,1.0,5.0,88,0.00,,---,0.00,VWS V14.01,2013-04-25 03:55:00,
2013-04-24 21:00:00,47.2,43.8,29.94,WNW,292,1.0,2.0,88,0.00,,---,0.00,VWS V14.01,2013-04-25 04:00:00,
2013-04-24 21:05:00,47.1,44.0,29.95,NNW,338,1.0,3.0,89,0.00,,---,0.00,VWS V14.01,2013-04-25 04:05:00,
2013-04-24 21:10:00,47.0,43.9,29.95,WNW,292,0.0,3.0,89,0.00,,---,0.00,VWS V14.01,2013-04-25 04:10:00,
2013-04-24 21:15:00,46.9,43.8,29.95,NNE,22,0.0,3.0,89,0.00,,---,0.00,VWS V14.01,2013-04-25 04:15:00,
2013-04-24 21:20:00,46.9,43.8,29.95,NW,315,0.0,2.0,89,0.00,,---,0.00,VWS V14.01,2013-04-25 04:20:00,
2013-04-24 21:25:00,47.0,43.9,29.95,NW,315,1.0,3.0,89,0.00,,---,0.00,VWS V14.01,2013-04-25 04:25:00,
2013-04-24 21:30:00,47.0,43.9,29.95,NW,315,0.0,3.0,89,0.00,,---,0.00,VWS V14.01,2013-04-25 04:30:00,
2013-04-24 21:35:00,46.9,43.8,29.95,West,270,0.0,2.0,89,0.00,,---,0.00,VWS V14.01,2013-04-25 04:35:00,
2013-04-24 21:40:00,47.0,44.2,29.95,NW,315,1.0,2.0,90,0.00,,---,0.00,VWS V14.01,2013-04-25 04:40:00,
2013-04-24 21:45:00,47.0,44.2,29.95,NW,315,1.0,2.0,90,0.00,,---,0.00,VWS V14.01,2013-04-25 04:45:00,
2013-04-24 21:50:00,47.0,44.2,29.95,WSW,248,0.0,1.0,90,0.00,,---,0.00,VWS V14.01,2013-04-25 04:50:00,
2013-04-24 21:55:00,47.0,43.9,29.95,WNW,292,0.0,1.0,89,0.00,,---,0.00,VWS V14.01,2013-04-25 04:55:00,
2013-04-24 22:00:00,47.1,44.3,29.95,WNW,292,0.0,2.0,90,0.00,,---,0.00,VWS V14.01,2013-04-25 05:00:00,
2013-04-24 22:05:00,47.1,44.3,29.95,NW,315,0.0,2.0,90,0.00,,---,0.00,VWS V14.01,2013-04-25 05:05:00,
2013-04-24 22:10:00,47.2,44.4,29.95,WSW,248,0.0,1.0,90,0.00,,---,0.00,VWS V14.01,2013-04-25 05:10:00,
2013-04-24 22:15:00,47.3,44.2,29.95,WSW,248,0.0,0.0,89,0.00,,---,0.00,VWS V14.01,2013-04-25 05:15:00,
2013-04-24 22:20:00,47.3,44.2,29.96,NNE,22,0.0,1.0,89,0.00,,---,0.00,VWS V14.01,2013-04-25 05:20:00,
2013-04-24 22:25:00,47.3,44.2,29.96,NNE,22,0.0,1.0,89,0.00,,---,0.00,VWS V14.01,2013-04-25 05:25:00,
2013-04-24 22:30:00,47.3,44.2,29.96,East,90,0.0,3.0,89,0.00,,---,0.00,VWS V14.01,2013-04-25 05:30:00,
2013-04-24 22:35:00,47.3,44.2,29.96,ENE,68,1.0,2.0,89,0.00,,---,0.00,VWS V14.01,2013-04-25 05:35:00,
2013-04-24 22:40:00,47.3,44.2,29.96,East,90,1.0,2.0,89,0.00,,---,0.00,VWS V14.01,2013-04-25 05:40:00,
2013-04-24 22:45:00,47.3,44.2,29.96,ESE,112,0.0,2.0,89,0.00,,---,0.00,VWS V14.01,2013-04-25 05:45:00,
2013-04-24 22:50:00,47.3,44.2,29.96,NE,45,1.0,3.0,89,0.00,,---,0.00,VWS V14.01,2013-04-25 05:50:00,
2013-04-24 22:55:00,47.3,44.2,29.96,East,90,1.0,2.0,89,0.00,,---,0.00,VWS V14.01,2013-04-25 05:55:00,
2013-04-24 23:00:00,47.3,44.2,29.96,ESE,112,0.0,1.0,89,0.00,,---,0.00,VWS V14.01,2013-04-25 06:00:00,
2013-04-24 23:05:00,47.2,44.1,29.96,NW,315,0.0,1.0,89,0.00,,---,0.00,VWS V14.01,2013-04-25 06:05:00,
2013-04-24 23:10:00,47.2,44.4,29.96,NW,315,0.0,2.0,90,0.00,,---,0.00,VWS V14.01,2013-04-25 06:10:00,
2013-04-24 23:15:00,47.2,44.4,29.97,ENE,68,0.0,1.0,90,0.00,,---,0.00,VWS V14.01,2013-04-25 06:15:00,
2013-04-24 23:20:00,47.2,44.4,29.97,WSW,248,0.0,1.0,90,0.00,,---,0.00,VWS V14.01,2013-04-25 06:20:00,
2013-04-24 23:25:00,47.2,44.4,29.97,NNW,338,0.0,1.0,90,0.00,,---,0.00,VWS V14.01,2013-04-25 06:25:00,
2013-04-24 23:30:00,47.2,44.4,29.97,SW,225,0.0,1.0,90,0.00,,---,0.00,VWS V14.01,2013-04-25 06:30:00,
2013-04-24 23:35:00,47.1,44.3,29.97,West,270,0.0,1.0,90,0.00,,---,0.00,VWS V14.01,2013-04-25 06:35:00,
2013-04-24 23:40:00,47.1,44.3,29.97,West,270,0.0,0.0,90,0.00,,---,0.00,VWS V14.01,2013-04-25 06:40:00,
2013-04-24 23:45:00,47.1,44.3,29.97,West,270,0.0,1.0,90,0.00,,---,0.00,VWS V14.01,2013-04-25 06:45:00,
2013-04-24 23:50:00,47.1,44.3,29.97,NW,315,1.0,2.0,90,0.00,,---,0.00,VWS V14.01,2013-04-25 06:50:00,
2013-04-24 23:55:00,47.1,44.3,29.97,WSW,248,0.0,1.0,90,0.00,,---,0.00,VWS V14.01,2013-04-25 06:55:00,